Time;durP1;ratioP1;P1;durP2;ratioP2;P2;SDS_P1;SDS_P2;PMS_P1;PMS_P2;Temp;Humidity;BMP_temperature;BMP_pressure;BME280_temperature;BME280_humidity;BME280_pressure;Samples;Min_cycle;Max_cycle;Signal;HPM_P1;HPM_P2
2022/05/14 00:01:14;;;;;;;6.30;2.90;;;14.90;99.90;;;;;;5035714;28;20422;-82
2022/05/14 00:03:41;;;;;;;4.10;2.60;;;14.90;99.90;;;;;;5035869;28;20425;-82
2022/05/14 00:06:10;;;;;;;5.93;2.97;;;14.80;99.90;;;;;;5035192;28;20433;-82
2022/05/14 00:08:37;;;;;;;5.67;2.40;;;14.70;99.90;;;;;;5035306;28;20798;-82
2022/05/14 00:13:48;;;;;;;4.47;2.47;;;14.60;99.90;;;;;;5054100;28;20444;-82
2022/05/14 00:16:15;;;;;;;7.90;3.50;;;14.60;99.90;;;;;;5035184;28;20462;-82
2022/05/14 00:18:41;;;;;;;3.93;2.90;;;14.50;99.90;;;;;;5035581;28;20429;-82
2022/05/14 00:21:08;;;;;;;4.80;2.80;;;14.50;99.90;;;;;;5051701;28;20479;-82
2022/05/14 00:23:34;;;;;;;6.37;2.77;;;14.40;99.90;;;;;;5034919;28;20418;-81
2022/05/14 00:26:00;;;;;;;7.50;2.67;;;14.30;99.90;;;;;;5051099;28;20426;-82
2022/05/14 00:28:25;;;;;;;5.90;3.00;;;14.30;99.90;;;;;;5051442;28;20453;-82
2022/05/14 00:30:51;;;;;;;4.13;3.10;;;14.20;99.90;;;;;;5051357;28;20422;-81
2022/05/14 00:33:17;;;;;;;5.73;2.90;;;14.10;99.90;;;;;;5034840;28;20278;-81
2022/05/14 00:35:44;;;;;;;12.17;2.93;;;14.10;99.90;;;;;;5034654;28;20462;-82
2022/05/14 00:38:10;;;;;;;3.87;2.40;;;14.10;99.90;;;;;;5051435;28;20813;-81
2022/05/14 00:40:48;;;;;;;5.77;2.80;;;14.00;99.90;;;;;;5035224;28;20418;-81
2022/05/14 00:43:15;;;;;;;10.00;2.77;;;14.10;99.90;;;;;;5034689;28;20511;-81
2022/05/14 00:45:58;;;;;;;3.90;2.27;;;14.00;99.90;;;;;;5033953;28;20921;-81
2022/05/14 00:48:34;;;;;;;5.10;2.27;;;13.90;99.90;;;;;;5050584;28;20473;-81
2022/05/14 00:51:00;;;;;;;6.23;2.40;;;13.80;99.90;;;;;;5033779;28;20417;-81
2022/05/14 00:53:31;;;;;;;3.20;2.63;;;13.80;99.90;;;;;;5034076;28;20448;-81
2022/05/14 00:56:01;;;;;;;7.20;3.00;;;13.90;99.90;;;;;;5033933;28;20462;-81
2022/05/14 00:58:42;;;;;;;5.80;3.30;;;13.80;99.90;;;;;;5033921;28;20422;-81
2022/05/14 01:01:08;;;;;;;4.03;2.67;;;13.60;99.90;;;;;;5033529;28;20414;-81
2022/05/14 01:03:34;;;;;;;5.83;2.90;;;13.60;99.90;;;;;;5033767;28;20418;-81
2022/05/14 01:06:04;;;;;;;5.80;2.80;;;13.60;99.90;;;;;;5058154;28;20441;-82
2022/05/14 01:08:30;;;;;;;6.10;2.57;;;13.70;99.90;;;;;;5045411;28;20425;-82
2022/05/14 01:10:57;;;;;;;5.87;2.43;;;13.60;99.90;;;;;;5061489;28;20452;-82
2022/05/14 01:13:23;;;;;;;4.60;2.60;;;13.50;99.90;;;;;;5043732;28;20498;-82
2022/05/14 01:15:55;;;;;;;4.73;3.03;;;13.50;99.90;;;;;;5060146;28;20465;-82
2022/05/14 01:18:22;;;;;;;3.53;2.30;;;13.30;99.90;;;;;;5044126;28;20464;-82
2022/05/14 01:21:02;;;;;;;6.27;2.30;;;13.20;99.90;;;;;;5046990;28;20429;-82
2022/05/14 01:26:27;;;;;;;5.63;2.73;;;13.10;99.90;;;;;;5062490;28;20436;-82
2022/05/14 01:26:30;;;;;;;5.20;3.10;;;13.10;99.90;;;;;;5063457;28;20885;-82
2022/05/14 01:29:13;;;;;;;7.13;3.13;;;13.00;99.90;;;;;;5044933;28;20422;-82
2022/05/14 01:31:40;;;;;;;4.53;2.40;;;13.00;99.90;;;;;;5061061;28;20425;-81
2022/05/14 01:34:10;;;;;;;4.20;2.43;;;13.00;99.90;;;;;;5038322;28;20426;-81
2022/05/14 01:36:37;;;;;;;6.83;2.57;;;13.10;99.90;;;;;;5037851;28;20523;-81
2022/05/14 01:39:04;;;;;;;4.27;2.60;;;13.10;99.90;;;;;;5038203;28;20421;-81
2022/05/14 01:41:30;;;;;;;3.90;2.27;;;13.10;99.90;;;;;;5037921;28;20450;-81
2022/05/14 01:43:56;;;;;;;8.17;2.80;;;13.10;99.90;;;;;;5054698;28;20450;-81
2022/05/14 01:46:21;;;;;;;3.70;2.57;;;13.10;99.90;;;;;;5054042;28;20203;-81
2022/05/14 01:48:48;;;;;;;4.83;2.53;;;13.00;99.90;;;;;;5054332;28;20184;-81
2022/05/14 01:51:14;;;;;;;5.77;2.50;;;13.00;99.90;;;;;;5037460;28;20613;-81
2022/05/14 01:53:40;;;;;;;4.30;2.20;;;13.10;99.90;;;;;;5037657;28;20418;-81
2022/05/14 01:56:07;;;;;;;3.90;2.30;;;13.10;99.90;;;;;;5037326;28;20540;-81
2022/05/14 01:58:38;;;;;;;7.43;2.60;;;13.10;99.90;;;;;;5054142;28;20413;-81
2022/05/14 02:01:13;;;;;;;5.20;2.50;;;13.10;99.90;;;;;;5054166;28;20418;-81
2022/05/14 02:03:40;;;;;;;4.57;2.60;;;13.00;99.90;;;;;;5054190;28;20842;-81
2022/05/14 02:06:06;;;;;;;3.80;2.20;;;12.90;99.90;;;;;;5037456;28;20789;-81
2022/05/14 02:08:32;;;;;;;7.23;2.33;;;12.80;99.90;;;;;;5054086;28;20422;-81
2022/05/14 02:10:58;;;;;;;5.43;2.40;;;12.80;99.90;;;;;;5053536;28;20418;-80
2022/05/14 02:13:25;;;;;;;4.37;2.60;;;12.80;99.90;;;;;;5037275;28;20299;-81
2022/05/14 02:15:51;;;;;;;5.70;2.10;;;12.70;99.90;;;;;;5074521;22;20646;-82
2022/05/14 02:18:18;;;;;;;3.93;2.03;;;12.70;99.90;;;;;;5059243;28;20497;-82
2022/05/14 02:20:43;;;;;;;5.70;2.47;;;12.60;99.90;;;;;;5059477;28;20424;-82
2022/05/14 02:23:09;;;;;;;5.60;2.80;;;12.60;99.90;;;;;;5059271;28;20429;-83
2022/05/14 02:25:35;;;;;;;5.07;2.73;;;12.60;99.90;;;;;;5056771;28;20219;-82
2022/05/14 02:28:01;;;;;;;5.80;2.60;;;12.60;99.90;;;;;;5057808;28;20425;-82
2022/05/14 02:30:27;;;;;;;3.80;2.60;;;12.60;99.90;;;;;;5057530;28;20486;-82
2022/05/14 02:32:52;;;;;;;3.50;2.07;;;12.50;99.90;;;;;;5057477;28;20180;-82
2022/05/14 02:35:18;;;;;;;3.33;2.23;;;12.50;99.90;;;;;;5057026;28;20222;-82
2022/05/14 02:37:44;;;;;;;3.20;2.50;;;12.40;99.90;;;;;;5041094;28;20239;-83
2022/05/14 02:40:11;;;;;;;3.00;1.70;;;12.40;99.90;;;;;;5058105;28;20540;-82
2022/05/14 02:42:36;;;;;;;4.43;2.10;;;12.40;99.90;;;;;;5058375;28;20182;-82
2022/05/14 02:45:02;;;;;;;3.60;2.10;;;12.40;99.90;;;;;;5040574;28;20876;-82
2022/05/14 02:47:30;;;;;;;4.10;2.03;;;12.30;99.90;;;;;;5040700;28;20182;-82
2022/05/14 02:49:56;;;;;;;4.37;2.30;;;12.40;99.90;;;;;;5039957;28;20426;-82
2022/05/14 02:52:23;;;;;;;4.70;2.40;;;12.40;99.90;;;;;;5039867;28;20857;-81
2022/05/14 02:54:49;;;;;;;4.30;2.47;;;12.30;99.90;;;;;;5057134;28;20448;-83
2022/05/14 02:57:15;;;;;;;8.63;2.47;;;12.20;99.90;;;;;;5039100;28;20466;-82
2022/05/14 02:59:41;;;;;;;4.20;2.43;;;12.10;99.90;;;;;;5039210;28;20414;-83
2022/05/14 03:02:07;;;;;;;5.07;2.20;;;12.20;99.90;;;;;;5056918;28;20795;-82
2022/05/14 03:04:37;;;;;;;5.50;1.93;;;12.10;99.90;;;;;;5038989;28;20199;-82
2022/05/14 03:07:06;;;;;;;4.10;2.37;;;12.10;99.90;;;;;;5057505;28;20171;-82
2022/05/14 03:09:32;;;;;;;4.90;2.73;;;12.00;99.90;;;;;;5039944;28;20430;-82
2022/05/14 03:11:58;;;;;;;3.93;2.47;;;12.00;99.90;;;;;;5039348;28;20454;-82
2022/05/14 03:14:23;;;;;;;3.53;2.37;;;12.00;99.90;;;;;;5056558;28;20434;-83
2022/05/14 03:16:49;;;;;;;4.50;2.60;;;12.00;99.90;;;;;;5040216;28;20210;-83
2022/05/14 03:19:15;;;;;;;3.63;2.30;;;12.00;99.90;;;;;;5040271;28;20197;-83
2022/05/14 03:21:41;;;;;;;4.50;2.40;;;12.10;99.90;;;;;;5040248;28;20712;-83
2022/05/14 03:24:07;;;;;;;6.13;2.23;;;12.10;99.90;;;;;;5039951;28;20178;-83
2022/05/14 03:26:33;;;;;;;3.60;1.77;;;12.10;99.90;;;;;;5039334;28;20428;-83
2022/05/14 03:28:58;;;;;;;3.47;2.50;;;12.10;99.90;;;;;;5057060;28;20497;-83
2022/05/14 03:31:24;;;;;;;7.20;2.27;;;12.00;99.90;;;;;;5040040;28;20175;-83
2022/05/14 03:33:50;;;;;;;5.87;2.10;;;12.00;99.90;;;;;;5040129;28;20179;-83
2022/05/14 03:36:15;;;;;;;5.63;2.60;;;12.00;99.90;;;;;;5056830;28;20253;-83
2022/05/14 03:38:41;;;;;;;4.60;2.10;;;12.00;99.90;;;;;;5039601;28;20180;-83
2022/05/14 03:41:07;;;;;;;4.47;2.10;;;11.90;99.90;;;;;;5056259;28;20229;-83
2022/05/14 03:43:34;;;;;;;4.43;2.00;;;11.80;99.90;;;;;;5039434;28;20191;-83
2022/05/14 03:46:00;;;;;;;6.50;2.30;;;11.80;99.90;;;;;;5057279;28;20445;-83
2022/05/14 03:48:26;;;;;;;3.77;2.00;;;11.80;99.90;;;;;;5039607;28;20422;-83
2022/05/14 03:50:52;;;;;;;4.20;2.20;;;11.70;99.90;;;;;;5038823;28;20505;-83
2022/05/14 03:53:18;;;;;;;4.13;2.27;;;11.70;99.90;;;;;;5039343;28;20205;-83
2022/05/14 03:55:44;;;;;;;5.47;2.80;;;11.70;99.90;;;;;;5039695;28;20473;-83
2022/05/14 03:58:11;;;;;;;4.27;2.47;;;11.60;99.90;;;;;;5038868;28;20414;-83
2022/05/14 04:00:36;;;;;;;5.40;2.30;;;11.70;99.90;;;;;;5039383;28;20476;-83
2022/05/14 04:03:09;;;;;;;6.07;2.40;;;11.70;99.90;;;;;;5133490;27;20586;-79
2022/05/14 04:05:35;;;;;;;4.60;2.27;;;11.60;99.90;;;;;;5098891;28;20502;-78
2022/05/14 04:08:01;;;;;;;4.83;2.27;;;11.60;99.90;;;;;;5112913;28;20862;-78
2022/05/14 04:10:27;;;;;;;5.80;2.53;;;11.50;99.90;;;;;;5116092;28;20404;-78
2022/05/14 04:12:53;;;;;;;3.97;2.30;;;11.50;99.90;;;;;;5116539;28;20437;-79
2022/05/14 04:15:19;;;;;;;4.00;2.43;;;11.40;99.90;;;;;;5115901;28;20212;-78
2022/05/14 04:17:45;;;;;;;5.00;2.60;;;11.40;99.90;;;;;;5114560;28;20346;-78
2022/05/14 04:20:11;;;;;;;4.20;2.30;;;11.40;99.90;;;;;;5115169;28;20188;-78
2022/05/14 04:22:37;;;;;;;3.40;2.20;;;11.40;99.90;;;;;;5115294;28;20276;-78
2022/05/14 04:25:04;;;;;;;5.07;2.97;;;11.40;99.90;;;;;;5115757;28;20977;-78
2022/05/14 04:27:30;;;;;;;5.77;2.33;;;11.40;99.90;;;;;;5114676;28;20443;-78
2022/05/14 04:29:56;;;;;;;4.20;2.00;;;11.50;99.90;;;;;;5116290;28;20414;-78
2022/05/14 04:32:22;;;;;;;3.27;2.20;;;11.50;99.90;;;;;;5114727;28;21130;-78
2022/05/14 04:34:48;;;;;;;3.57;2.40;;;11.60;99.90;;;;;;5114823;28;20182;-78
2022/05/14 04:37:13;;;;;;;4.50;2.33;;;11.60;99.90;;;;;;5115319;28;20493;-79
2022/05/14 04:39:39;;;;;;;3.30;2.17;;;11.60;99.90;;;;;;5115068;28;20231;-78
2022/05/14 04:42:09;;;;;;;4.67;2.13;;;11.60;99.90;;;;;;5114977;28;20740;-78
2022/05/14 04:44:37;;;;;;;5.90;2.50;;;11.70;99.90;;;;;;5115918;28;20178;-77
2022/05/14 04:47:03;;;;;;;6.13;2.43;;;11.70;99.90;;;;;;5114970;28;20497;-79
2022/05/14 04:49:29;;;;;;;3.70;2.50;;;11.70;99.90;;;;;;5114856;28;20416;-78
2022/05/14 04:51:55;;;;;;;4.20;2.43;;;11.80;99.90;;;;;;5114202;28;20430;-78
2022/05/14 04:54:21;;;;;;;5.20;3.10;;;11.90;99.90;;;;;;5115373;28;20427;-78
2022/05/14 04:56:47;;;;;;;4.10;2.63;;;12.00;99.90;;;;;;5114661;28;20454;-79
2022/05/14 04:59:13;;;;;;;5.90;2.83;;;12.10;99.90;;;;;;5116277;28;20416;-78
2022/05/14 05:03:16;;;;;;;3.47;2.70;;;12.10;99.90;;;;;;5115186;28;20684;-78
2022/05/14 05:04:32;;;;;;;6.00;2.90;;;12.20;99.90;;;;;;5116359;28;20914;-78
2022/05/14 05:06:57;;;;;;;4.97;3.50;;;12.10;99.90;;;;;;5114694;28;20628;-78
2022/05/14 05:09:23;;;;;;;5.57;3.07;;;12.10;99.90;;;;;;5115066;28;20919;-79
2022/05/14 05:11:50;;;;;;;10.93;3.20;;;12.20;99.90;;;;;;5114117;28;20217;-79
2022/05/14 05:14:16;;;;;;;5.67;3.10;;;12.20;99.90;;;;;;5100941;28;20671;-78
2022/05/14 05:16:42;;;;;;;7.27;3.10;;;12.40;99.90;;;;;;5099195;28;20489;-78
2022/05/14 05:19:08;;;;;;;4.50;2.53;;;12.50;99.90;;;;;;5100420;28;20421;-78
2022/05/14 05:21:34;;;;;;;4.73;2.40;;;12.60;99.90;;;;;;5099679;28;20205;-78
2022/05/14 05:24:01;;;;;;;4.23;2.10;;;12.70;99.90;;;;;;5100568;28;20192;-79
2022/05/14 05:26:27;;;;;;;4.53;2.47;;;12.80;99.90;;;;;;5100624;28;20216;-78
2022/05/14 05:28:53;;;;;;;4.80;3.30;;;12.80;99.90;;;;;;5100179;28;20415;-78
2022/05/14 05:31:19;;;;;;;4.83;2.30;;;12.90;99.90;;;;;;5100288;28;20674;-78
2022/05/14 05:33:44;;;;;;;4.50;2.10;;;13.00;99.90;;;;;;5099556;28;20418;-79
2022/05/14 05:36:10;;;;;;;5.23;2.90;;;13.10;99.90;;;;;;5100623;28;20185;-79
2022/05/14 05:38:37;;;;;;;5.80;2.90;;;13.10;99.90;;;;;;5100721;28;20185;-79
2022/05/14 05:41:03;;;;;;;4.67;2.30;;;13.20;99.90;;;;;;5100840;28;20259;-78
2022/05/14 05:43:29;;;;;;;5.53;2.53;;;13.20;99.90;;;;;;5100189;28;20412;-79
2022/05/14 05:45:56;;;;;;;5.03;3.30;;;13.40;99.90;;;;;;5098157;28;20545;-78
2022/05/14 05:48:22;;;;;;;3.83;2.37;;;13.40;99.90;;;;;;5097420;28;20205;-78
2022/05/14 05:50:48;;;;;;;4.60;2.50;;;13.40;99.90;;;;;;5098658;28;20427;-80
2022/05/14 05:53:16;;;;;;;6.43;2.77;;;13.60;99.90;;;;;;5099035;28;20421;-80
2022/05/14 05:58:27;;;;;;;8.97;2.87;;;13.90;99.90;;;;;;5097412;28;20395;-82
2022/05/14 06:00:53;;;;;;;7.00;2.80;;;14.00;99.90;;;;;;5095695;28;20421;-81
2022/05/14 06:03:19;;;;;;;4.03;2.10;;;14.20;99.90;;;;;;5097820;28;20512;-78
2022/05/14 06:05:45;;;;;;;4.60;2.47;;;14.10;99.90;;;;;;5099065;28;20429;-79
2022/05/14 06:08:14;;;;;;;5.57;2.27;;;14.20;99.90;;;;;;5098876;28;20224;-79
2022/05/14 06:10:41;;;;;;;3.90;2.40;;;14.30;99.90;;;;;;5101791;28;20477;-80
2022/05/14 06:13:09;;;;;;;4.97;3.07;;;14.40;99.90;;;;;;5100611;28;20496;-78
2022/05/14 06:15:36;;;;;;;5.80;3.50;;;14.50;99.90;;;;;;5097954;28;20424;-78
2022/05/14 06:18:03;;;;;;;4.33;2.20;;;14.40;99.90;;;;;;5099764;28;20539;-79
2022/05/14 06:20:29;;;;;;;6.53;2.27;;;14.50;99.90;;;;;;5101210;28;20819;-79
2022/05/14 06:22:55;;;;;;;5.07;2.87;;;14.60;99.90;;;;;;5098999;28;20514;-80
2022/05/14 06:25:21;;;;;;;7.73;2.87;;;14.60;99.90;;;;;;5096921;28;20482;-80
2022/05/14 06:27:47;;;;;;;3.93;2.40;;;14.60;99.90;;;;;;5097742;28;20198;-79
2022/05/14 06:30:13;;;;;;;6.30;2.50;;;14.70;99.90;;;;;;5098456;28;20473;-79
2022/05/14 06:32:39;;;;;;;4.70;2.70;;;14.80;99.90;;;;;;5097491;28;20186;-79
2022/05/14 06:35:07;;;;;;;5.63;2.60;;;15.00;99.90;;;;;;5097885;28;20470;-79
2022/05/14 06:37:33;;;;;;;5.33;2.83;;;15.00;99.90;;;;;;5097781;28;20202;-79
2022/05/14 06:39:58;;;;;;;8.43;3.20;;;15.00;99.90;;;;;;5097265;28;20431;-80
2022/05/14 06:42:24;;;;;;;8.20;3.13;;;15.10;99.90;;;;;;5097358;28;20210;-79
2022/05/14 06:44:51;;;;;;;5.43;2.50;;;15.20;99.90;;;;;;5097124;28;20178;-79
2022/05/14 06:47:17;;;;;;;4.47;2.90;;;15.30;99.90;;;;;;5098031;28;20285;-79
2022/05/14 06:49:43;;;;;;;6.57;2.50;;;15.40;99.90;;;;;;5098363;28;20456;-79
2022/05/14 06:52:13;;;;;;;5.87;2.73;;;15.50;99.90;;;;;;5098224;28;20278;-79
2022/05/14 06:54:41;;;;;;;11.40;3.03;;;15.70;99.90;;;;;;5097710;28;20420;-79
2022/05/14 06:57:07;;;;;;;4.40;3.07;;;15.90;99.90;;;;;;5099378;28;20530;-79
2022/05/14 06:59:33;;;;;;;7.70;2.80;;;16.00;99.90;;;;;;5097433;28;20506;-79
2022/05/14 07:02:00;;;;;;;5.13;2.80;;;16.00;99.90;;;;;;5097752;28;20252;-79
2022/05/14 07:07:13;;;;;;;3.90;2.57;;;16.20;99.90;;;;;;5098546;28;20428;-78
2022/05/14 07:09:39;;;;;;;6.83;3.20;;;16.20;99.90;;;;;;5093198;28;20416;-78
2022/05/14 07:12:10;;;;;;;4.70;2.73;;;16.20;99.90;;;;;;5093613;28;20218;-79
2022/05/14 07:14:40;;;;;;;9.27;3.00;;;16.20;99.90;;;;;;5094851;28;20193;-79
2022/05/14 07:17:08;;;;;;;5.67;2.80;;;16.20;99.90;;;;;;5095504;28;20542;-79
2022/05/14 07:19:36;;;;;;;5.90;2.70;;;16.10;99.90;;;;;;5095275;28;20424;-78
2022/05/14 07:22:02;;;;;;;5.27;2.73;;;16.20;99.90;;;;;;5094836;28;20511;-79
2022/05/14 07:24:29;;;;;;;7.47;2.90;;;16.20;99.90;;;;;;5096247;28;20450;-78
2022/05/14 07:26:58;;;;;;;5.93;3.53;;;16.40;99.90;;;;;;5096706;28;20475;-78
2022/05/14 07:29:25;;;;;;;5.60;3.40;;;16.60;99.90;;;;;;5094227;28;20416;-78
2022/05/14 07:31:52;;;;;;;8.33;3.87;;;16.60;99.90;;;;;;5094302;28;20420;-78
2022/05/14 07:34:19;;;;;;;6.90;2.77;;;16.60;99.90;;;;;;5097129;28;20424;-79
2022/05/14 07:37:14;;;;;;;9.17;3.40;;;16.80;99.90;;;;;;5083432;28;20457;-79
2022/05/14 07:39:50;;;;;;;6.33;2.60;;;16.80;99.90;;;;;;5082461;28;20413;-79
2022/05/14 07:42:22;;;;;;;4.83;2.47;;;17.00;99.90;;;;;;5096335;28;20456;-79
2022/05/14 07:44:52;;;;;;;5.50;3.40;;;17.00;99.90;;;;;;5095518;28;20935;-79
2022/05/14 07:47:18;;;;;;;4.17;3.00;;;16.80;99.90;;;;;;5095850;28;20455;-79
2022/05/14 07:49:47;;;;;;;6.80;3.20;;;16.90;99.90;;;;;;5094274;28;20927;-78
2022/05/14 07:52:14;;;;;;;4.53;2.73;;;17.10;99.90;;;;;;5082539;28;20185;-78
2022/05/14 07:54:40;;;;;;;5.33;2.80;;;17.60;99.90;;;;;;5091414;28;20443;-78
2022/05/14 07:57:08;;;;;;;7.47;3.83;;;18.40;99.90;;;;;;5093184;28;20452;-78
2022/05/14 07:59:35;;;;;;;6.30;3.20;;;19.00;99.90;;;;;;5091922;28;20242;-79
2022/05/14 08:02:06;;;;;;;5.20;3.10;;;19.70;99.90;;;;;;5087687;28;20467;-78
2022/05/14 08:04:33;;;;;;;6.63;2.97;;;20.30;99.90;;;;;;5092933;28;21016;-79
2022/05/14 08:06:59;;;;;;;5.03;2.43;;;21.00;99.90;;;;;;5094960;28;20523;-78
2022/05/14 08:09:24;;;;;;;6.23;3.40;;;22.10;99.90;;;;;;5092536;28;20448;-79
2022/05/14 08:11:52;;;;;;;8.33;3.20;;;22.70;99.90;;;;;;5088981;28;20649;-78
2022/05/14 08:14:19;;;;;;;9.90;3.00;;;23.10;99.90;;;;;;5089601;28;20182;-78
2022/05/14 08:16:44;;;;;;;5.83;2.73;;;23.30;99.90;;;;;;5057173;22;20557;-78
2022/05/14 08:19:13;;;;;;;5.20;3.40;;;23.90;99.90;;;;;;5018948;28;20539;-78
2022/05/14 08:24:34;;;;;;;5.47;2.90;;;24.60;98.70;;;;;;5028715;28;20442;-78
2022/05/14 08:27:03;;;;;;;5.13;3.40;;;25.50;97.00;;;;;;5032598;28;20439;-80
2022/05/14 08:29:29;;;;;;;5.90;3.00;;;26.50;92.10;;;;;;5033812;28;20415;-81
2022/05/14 08:31:55;;;;;;;4.00;2.60;;;27.20;89.40;;;;;;5031575;28;20820;-79
2022/05/14 08:34:21;;;;;;;5.67;2.87;;;27.70;81.10;;;;;;5029683;28;20658;-79
2022/05/14 08:36:47;;;;;;;4.10;2.90;;;28.00;80.90;;;;;;5024108;28;20212;-80
2022/05/14 08:39:13;;;;;;;8.47;3.00;;;28.50;75.50;;;;;;5029323;28;20530;-79
2022/05/14 08:41:42;;;;;;;4.70;2.73;;;28.90;71.30;;;;;;5026176;28;20463;-80
2022/05/14 08:44:12;;;;;;;5.23;2.83;;;29.30;67.80;;;;;;5030948;28;20454;-79
2022/05/14 08:46:40;;;;;;;4.67;2.60;;;30.10;66.40;;;;;;5033597;28;20824;-80
2022/05/14 08:49:20;;;;;;;8.03;2.70;;;30.50;61.30;;;;;;5038061;28;20423;-82
2022/05/14 08:51:50;;;;;;;4.50;2.60;;;31.00;60.40;;;;;;5038854;28;20422;-80
2022/05/14 08:54:17;;;;;;;5.47;2.77;;;31.70;56.00;;;;;;5039794;28;20423;-81
2022/05/14 08:56:53;;;;;;;7.67;2.87;;;32.30;52.30;;;;;;5035741;28;20444;-83
2022/05/14 08:59:31;;;;;;;5.63;2.90;;;32.30;51.70;;;;;;5030678;28;20445;-82
2022/05/14 09:02:04;;;;;;;4.37;2.57;;;32.80;51.00;;;;;;5035925;28;20516;-80
2022/05/14 09:04:30;;;;;;;7.30;2.93;;;33.30;48.50;;;;;;5032931;28;20474;-80
2022/05/14 09:06:56;;;;;;;7.77;2.80;;;33.20;47.00;;;;;;5036614;28;20537;-80
2022/05/14 09:09:22;;;;;;;5.00;2.93;;;33.40;48.20;;;;;;5036176;28;20188;-80
2022/05/14 09:12:00;;;;;;;5.20;2.47;;;34.00;45.20;;;;;;5036863;28;20299;-82
2022/05/14 09:14:28;;;;;;;5.17;2.87;;;34.30;45.50;;;;;;5036518;28;20188;-81
2022/05/14 09:17:14;;;;;;;5.57;2.77;;;33.90;43.90;;;;;;5037471;28;20462;-81
2022/05/14 09:19:43;;;;;;;6.13;2.67;;;34.70;45.30;;;;;;5032708;28;20445;-79
2022/05/14 09:22:30;;;;;;;4.97;2.60;;;34.90;41.40;;;;;;5036264;28;20459;-79
2022/05/14 09:24:59;;;;;;;4.97;2.70;;;35.20;41.60;;;;;;5037517;28;20419;-80
2022/05/14 09:27:49;;;;;;;4.00;2.43;;;35.10;41.60;;;;;;5036615;28;20546;-80
2022/05/14 09:30:29;;;;;;;7.30;2.60;;;34.90;41.30;;;;;;5026475;28;20514;-79
2022/05/14 09:32:56;;;;;;;4.67;2.70;;;35.50;40.80;;;;;;5037483;28;20484;-80
2022/05/14 09:35:25;;;;;;;6.00;2.60;;;36.00;41.40;;;;;;5037406;28;20415;-80
2022/05/14 09:37:55;;;;;;;5.07;3.23;;;36.40;40.50;;;;;;5036814;28;20450;-80
2022/05/14 09:40:27;;;;;;;5.07;2.60;;;36.60;40.00;;;;;;5038001;28;20423;-79
2022/05/14 09:43:06;;;;;;;4.93;2.60;;;36.60;39.80;;;;;;5037678;28;20512;-80
2022/05/14 09:45:41;;;;;;;5.03;2.73;;;36.60;40.10;;;;;;5039932;28;20423;-80
2022/05/14 09:48:12;;;;;;;7.73;2.60;;;35.60;38.70;;;;;;5039610;28;20470;-80
2022/05/14 09:50:39;;;;;;;4.93;2.80;;;35.30;39.80;;;;;;5037484;28;20457;-79
2022/05/14 09:53:09;;;;;;;3.73;2.40;;;35.00;40.50;;;;;;5038640;28;20423;-79
2022/05/14 09:55:47;;;;;;;5.40;2.60;;;34.80;41.70;;;;;;5036545;28;20423;-80
2022/05/14 09:58:25;;;;;;;6.47;2.63;;;34.70;41.70;;;;;;5035631;28;20449;-80
2022/05/14 10:01:03;;;;;;;5.30;2.67;;;34.80;40.70;;;;;;5035297;28;20431;-79
2022/05/14 10:03:44;;;;;;;9.27;2.93;;;34.20;40.50;;;;;;5035605;28;20430;-79
2022/05/14 10:06:35;;;;;;;7.03;2.87;;;34.00;41.70;;;;;;5034259;28;20407;-79
2022/05/14 10:09:16;;;;;;;5.70;2.93;;;34.80;41.20;;;;;;5034550;28;20415;-78
2022/05/14 10:11:46;;;;;;;5.13;2.70;;;35.00;40.20;;;;;;5034175;28;20765;-79
2022/05/14 10:14:46;;;;;;;7.20;2.50;;;34.40;40.60;;;;;;5036544;28;20425;-78
2022/05/14 10:17:49;;;;;;;5.50;3.80;;;35.40;39.90;;;;;;5036928;28;20547;-79
2022/05/14 10:20:34;;;;;;;7.03;2.80;;;35.50;39.40;;;;;;5036827;28;20433;-79
2022/05/14 10:29:32;;;;;;;6.10;3.20;;;32.80;40.30;;;;;;5037788;28;20422;-79
2022/05/14 10:32:04;;;;;;;4.43;2.67;;;31.10;41.80;;;;;;5036661;28;20434;-78
2022/05/14 10:35:02;;;;;;;7.13;3.03;;;30.40;44.60;;;;;;5037032;28;20415;-79
2022/05/14 10:37:46;;;;;;;5.40;3.20;;;29.60;45.10;;;;;;5035630;28;20450;-79
2022/05/14 10:41:00;;;;;;;6.10;3.23;;;29.20;47.00;;;;;;5035771;28;20826;-79
2022/05/14 10:43:54;;;;;;;6.03;2.90;;;29.80;46.10;;;;;;4975376;28;20809;-79
2022/05/14 10:46:22;;;;;;;6.67;2.90;;;29.10;46.30;;;;;;5033854;28;20911;-79
2022/05/14 10:48:57;;;;;;;8.80;2.90;;;28.60;46.40;;;;;;5035411;28;20419;-79
2022/05/14 10:51:30;;;;;;;4.60;2.47;;;28.10;49.20;;;;;;5036032;28;20419;-79
2022/05/14 10:53:58;;;;;;;8.30;2.83;;;27.80;48.60;;;;;;5036405;28;20422;-78
2022/05/14 10:56:34;;;;;;;7.40;2.73;;;27.30;49.40;;;;;;5036100;28;20499;-79
2022/05/14 10:59:12;;;;;;;4.70;2.50;;;26.70;52.30;;;;;;5036515;28;20415;-79
2022/05/14 11:01:53;;;;;;;7.60;3.40;;;26.20;53.30;;;;;;5035787;28;20879;-79
2022/05/14 11:04:45;;;;;;;6.10;3.20;;;25.80;53.10;;;;;;5035892;28;20465;-79
2022/05/14 11:07:33;;;;;;;5.10;3.10;;;25.30;55.10;;;;;;5036266;28;20478;-79
2022/05/14 11:10:16;;;;;;;4.87;2.83;;;24.90;55.70;;;;;;5035797;28;20427;-78
2022/05/14 11:12:42;;;;;;;4.67;2.30;;;24.90;57.80;;;;;;5035405;28;20418;-78
2022/05/14 11:15:29;;;;;;;4.80;2.93;;;24.70;58.80;;;;;;5035940;28;20415;-78
2022/05/14 11:18:08;;;;;;;5.27;2.63;;;24.80;59.70;;;;;;5035253;28;20443;-79
2022/05/14 11:20:35;;;;;;;5.47;2.97;;;24.80;59.70;;;;;;5035751;28;20419;-79
2022/05/14 11:23:10;;;;;;;5.10;2.97;;;24.80;62.40;;;;;;5035550;28;20554;-79
2022/05/14 11:25:37;;;;;;;7.50;3.40;;;24.80;64.10;;;;;;5035524;28;20422;-79
2022/05/14 11:28:12;;;;;;;4.43;3.00;;;24.70;63.30;;;;;;5035589;28;20435;-78
2022/05/14 11:30:48;;;;;;;6.20;2.77;;;25.10;67.20;;;;;;5036214;28;20449;-78
2022/05/14 11:33:26;;;;;;;4.77;2.70;;;25.30;64.20;;;;;;5035459;28;20481;-78
2022/05/14 11:36:12;;;;;;;5.20;2.53;;;25.20;60.30;;;;;;5036514;28;20465;-79
2022/05/14 11:38:42;;;;;;;4.43;2.60;;;24.90;62.20;;;;;;5035522;28;20427;-79
2022/05/14 11:41:25;;;;;;;5.90;2.63;;;24.90;61.60;;;;;;5036077;28;20453;-79
2022/05/14 11:43:53;;;;;;;5.63;3.10;;;25.00;64.00;;;;;;5035824;28;20956;-79
2022/05/14 11:46:25;;;;;;;4.43;2.17;;;25.20;70.10;;;;;;5035035;28;20466;-79
2022/05/14 11:48:53;;;;;;;4.20;2.33;;;25.10;65.10;;;;;;5035062;28;20630;-79
2022/05/14 11:51:28;;;;;;;6.53;2.60;;;25.00;63.70;;;;;;5034672;28;20941;-79
2022/05/14 11:54:22;;;;;;;4.07;2.40;;;24.80;60.70;;;;;;5034896;28;20489;-79
2022/05/14 11:56:53;;;;;;;5.40;2.90;;;24.60;61.00;;;;;;5035166;28;20517;-79
2022/05/14 11:59:36;;;;;;;5.67;2.73;;;24.70;62.70;;;;;;5035712;28;20423;-78
2022/05/14 12:02:09;;;;;;;4.93;2.30;;;24.80;66.70;;;;;;5035039;28;20458;-78
2022/05/14 12:04:44;;;;;;;7.53;2.87;;;24.80;67.80;;;;;;5034757;28;20447;-78
2022/05/14 12:07:22;;;;;;;7.07;2.60;;;25.10;69.20;;;;;;5034697;28;20537;-79
2022/05/14 12:10:38;;;;;;;5.60;2.90;;;25.10;67.00;;;;;;5035918;28;20502;-79
2022/05/14 12:13:16;;;;;;;6.47;2.47;;;25.40;68.00;;;;;;5009734;28;20481;-79
2022/05/14 12:15:52;;;;;;;5.90;2.70;;;25.60;62.40;;;;;;5034781;28;20489;-79
2022/05/14 12:18:19;;;;;;;4.90;2.13;;;25.40;64.20;;;;;;5035119;28;20937;-79
2022/05/14 12:20:56;;;;;;;4.53;2.53;;;25.40;67.40;;;;;;5034345;28;20518;-79
2022/05/14 12:23:35;;;;;;;6.33;2.80;;;26.40;61.80;;;;;;5036421;28;20422;-79
2022/05/14 12:26:05;;;;;;;4.87;2.40;;;27.70;59.00;;;;;;5038848;28;20426;-79
2022/05/14 12:28:33;;;;;;;4.40;2.37;;;27.60;58.20;;;;;;5039327;28;20941;-79
2022/05/14 12:34:00;;;;;;;6.63;2.90;;;27.40;61.70;;;;;;5040941;28;20479;-79
2022/05/14 12:36:31;;;;;;;5.43;2.53;;;27.00;60.30;;;;;;5038991;28;20525;-79
2022/05/14 12:38:57;;;;;;;5.13;3.03;;;26.80;60.20;;;;;;5039490;28;20427;-79
2022/05/14 12:41:27;;;;;;;6.73;2.80;;;26.80;60.40;;;;;;5038049;28;20977;-79
2022/05/14 12:43:53;;;;;;;5.70;2.90;;;26.10;59.40;;;;;;5039078;28;20423;-78
2022/05/14 12:46:21;;;;;;;4.90;2.70;;;26.30;63.60;;;;;;5038665;28;20415;-78
2022/05/14 12:48:51;;;;;;;5.20;2.70;;;26.30;60.60;;;;;;5038608;28;20421;-78
2022/05/14 12:51:20;;;;;;;4.10;2.50;;;26.30;62.10;;;;;;5038673;28;20473;-79
2022/05/14 12:53:46;;;;;;;4.83;2.50;;;26.30;63.00;;;;;;5031364;28;20440;-79
2022/05/14 12:56:12;;;;;;;4.00;2.50;;;26.30;65.70;;;;;;5024248;28;20440;-79
2022/05/14 12:58:39;;;;;;;4.80;2.50;;;26.30;64.70;;;;;;5031700;28;20470;-78
2022/05/14 13:01:07;;;;;;;5.43;2.77;;;26.00;66.90;;;;;;5038503;28;20813;-80
2022/05/14 13:03:42;;;;;;;3.77;2.00;;;25.90;66.60;;;;;;5039424;28;20432;-81
2022/05/14 13:06:23;;;;;;;5.10;2.27;;;26.00;68.10;;;;;;5039362;28;20791;-82
2022/05/14 13:08:59;;;;;;;3.33;2.00;;;26.00;67.30;;;;;;5037673;28;20426;-81
2022/05/14 13:11:29;;;;;;;3.63;2.23;;;25.90;61.60;;;;;;5038309;28;20445;-79
2022/05/14 13:13:59;;;;;;;4.53;2.47;;;26.00;63.00;;;;;;5034862;28;20417;-85
2022/05/14 13:16:28;;;;;;;8.10;2.33;;;26.10;64.70;;;;;;5033977;28;20499;-86
2022/05/14 13:18:54;;;;;;;5.13;2.27;;;26.20;58.70;;;;;;5034537;28;20450;-87
2022/05/14 13:21:26;;;;;;;4.90;3.83;;;26.00;62.20;;;;;;5033622;28;20548;-86